Portada
METAR-TAF:

METAR-TAF

Aeropuertos :

Aeropuerto de Estocolmo-Arlanda

Estocolmo-Arlanda, Suecia

latitud: 59-39N, longitud: 017-57E, altitud: 38 m

METAR: falta

Hora: 17:49 (15:49 UTC)

Pronóstico

El informe se hizo hace 10 horas y 19 minutos, a las 05:30 UTC
Pronóstico válido del 21 a las 06 UTC al 22 a las 06 UTC
Viento 10 kt del noroeste
Visibilidad 10 km o más
sin nubes por debajo de 1500 m y sin presencia de cumulonimbus.
Evolucionando progresivamente
del 21 a las 19 UTC al 21 a las 21 UTC
Viento 2 kt con dirección variable

TAF: ESSA 210530Z 2106/2206 31010KT CAVOK BECMG 2119/2121 VRB02KT

Observaciones y pronósticos meteorológicos de más de 4000 aeropuertos (mensajes METAR y TAF).

Los puntos amarillos y rojos representan las estaciones disponibles.

Ponga el ratón en el punto deseado para ver el nombre de la estación.

Haga clic para ver las observaciones y los pronósticos meteorológicos.

Para cambiar el mapa : haga clic en los botones verdes con una cruz de color negro para hacer un zoom, en el botón verde con un guión para alejar o en las flechas verdes para mapas adyacentes.


METAR-TAF: